Wetterdaten: Woche 24.12.18 - 30.12.18 (KW52)
Datum Zeit Temp. Aussen Temp. o. S. +5cm Feuchte Auss Luftdruck Regen Sonnenschein Regendauer Solar Windben Empfang
24.12.2018 00:00 5,7 C 4,9 C 4,7 C 98 % 1015,3 hPa 0,6 l/m 0,00 h 1,00 h 0 W/m 16,4 km/h (3 Bft) 95,00 %
24.12.2018 01:00 5,3 C 4,4 C 4,4 C 99 % 1016,3 hPa 0,2 l/m 0,00 h 0,67 h 0 W/m 16,6 km/h (3 Bft) 97,30 %
24.12.2018 02:00 5,3 C 4,6 C 4,4 C 99 % 1018,0 hPa 0,0 l/m 0,00 h 0,00 h 0 W/m 11,2 km/h (2 Bft) 96,51 %
24.12.2018 03:00 5,4 C 4,7 C 4,4 C 99 % 1019,0 hPa 0,0 l/m 0,00 h 0,00 h 0 W/m 12,7 km/h (3 Bft) 97,34 %
24.12.2018 04:00 5,4 C 5,0 C 4,4 C 99 % 1020,1 hPa 0,0 l/m 0,00 h 0,00 h 0 W/m 9,8 km/h (2 Bft) 97,37 %
24.12.2018 05:00 5,4 C 4,9 C 4,4 C 99 % 1021,1 hPa 0,0 l/m 0,00 h 0,00 h 0 W/m 9,0 km/h (2 Bft) 96,93 %
24.12.2018 06:00 5,4 C 5,0 C 4,4 C 99 % 1022,5 hPa 0,0 l/m 0,00 h 0,00 h 0 W/m 9,6 km/h (2 Bft) 97,06 %
24.12.2018 07:00 5,4 C 5,0 C 4,4 C 99 % 1024,1 hPa 0,0 l/m 0,00 h 0,00 h 0 W/m 11,9 km/h (2 Bft) 98,29 %
24.12.2018 08:00 5,3 C 4,5 C 4,4 C 99 % 1025,2 hPa 0,0 l/m 0,00 h 0,00 h 6 W/m 7,0 km/h (2 Bft) 96,59 %
24.12.2018 09:00 5,3 C 4,9 C 4,4 C 99 % 1026,2 hPa 0,0 l/m 0,00 h 0,00 h 17 W/m 8,9 km/h (2 Bft) 97,08 %
24.12.2018 10:00 5,2 C 4,9 C 4,4 C 99 % 1027,7 hPa 0,2 l/m 0,00 h 0,03 h 28 W/m 13,3 km/h (3 Bft) 97,65 %
24.12.2018 11:00 5,5 C 11,4 C 4,0 C 99 % 1028,5 hPa 0,0 l/m 0,80 h 0,00 h 212 W/m 12,8 km/h (3 Bft) 97,68 %
24.12.2018 12:00 7,1 C 14,7 C 4,3 C 89 % 1028,8 hPa 0,0 l/m 1,00 h 0,00 h 289 W/m 16,3 km/h (3 Bft) 98,78 %
24.12.2018 13:00 8,0 C 14,6 C 4,6 C 77 % 1029,2 hPa 0,0 l/m 0,93 h 0,00 h 261 W/m 14,0 km/h (3 Bft) 96,65 %
24.12.2018 14:00 7,5 C 9,8 C 5,0 C 77 % 1029,7 hPa 0,0 l/m 0,37 h 0,00 h 120 W/m 11,1 km/h (2 Bft) 96,78 %
24.12.2018 15:00 6,3 C 5,5 C 4,1 C 79 % 1030,5 hPa 0,0 l/m 0,03 h 0,00 h 41 W/m 9,1 km/h (2 Bft) 97,45 %
24.12.2018 16:00 5,0 C 2,9 C 2,2 C 82 % 1031,3 hPa 0,0 l/m 0,00 h 0,00 h 10 W/m 0,6 km/h (0 Bft) 97,08 %
24.12.2018 17:00 3,3 C 1,4 C 0,9 C 85 % 1031,5 hPa 0,0 l/m 0,00 h 0,00 h 0 W/m 0,1 km/h (0 Bft) 96,69 %
24.12.2018 18:00 2,0 C -0,0 C -0,2 C 87 % 1032,1 hPa 0,0 l/m 0,00 h 0,00 h 0 W/m 0,0 km/h (0 Bft) 97,97 %
24.12.2018 19:00 0,9 C -0,4 C -0,9 C 89 % 1032,7 hPa 0,0 l/m 0,00 h 0,00 h 0 W/m 0,1 km/h (0 Bft) 96,57 %
24.12.2018 20:00 0,4 C -0,7 C -1,5 C 90 % 1033,4 hPa 0,0 l/m 0,00 h 0,00 h 0 W/m 0,0 km/h (0 Bft) 99,28 %
24.12.2018 21:00 -0,0 C -0,9 C -1,6 C 92 % 1033,6 hPa 0,0 l/m 0,00 h 0,00 h 0 W/m 0,0 km/h (0 Bft) 95,41 %
24.12.2018 22:00 0,2 C 0,4 C -0,4 C 94 % 1033,7 hPa 0,0 l/m 0,00 h 0,00 h 0 W/m 1,0 km/h (0 Bft) 97,95 %
24.12.2018 23:00 1,4 C 1,6 C 0,7 C 96 % 1033,8 hPa 0,0 l/m 0,00 h 0,00 h 0 W/m 1,1 km/h (0 Bft) 98,30 %
25.12.2018 00:00 2,0 C 2,2 C 1,4 C 96 % 1033,5 hPa 0,0 l/m 0,00 h 0,00 h 0 W/m 4,0 km/h (1 Bft) 96,33 %
25.12.2018 01:00 2,3 C 2,2 C 1,7 C 96 % 1033,3 hPa 0,0 l/m 0,00 h 0,00 h 0 W/m 9,3 km/h (2 Bft) 97,17 %
25.12.2018 02:00 2,7 C 2,6 C 1,7 C 96 % 1033,4 hPa 0,0 l/m 0,00 h 0,00 h 0 W/m 2,8 km/h (1 Bft) 99,15 %
25.12.2018 03:00 2,8 C 2,8 C 2,0 C 95 % 1033,7 hPa 0,0 l/m 0,00 h 0,00 h 0 W/m 2,9 km/h (1 Bft) 96,28 %
25.12.2018 04:00 3,0 C 2,8 C 2,2 C 94 % 1033,5 hPa 0,0 l/m 0,00 h 0,00 h 0 W/m 4,5 km/h (1 Bft) 97,23 %
25.12.2018 05:00 3,1 C 2,8 C 2,2 C 93 % 1033,3 hPa 0,0 l/m 0,00 h 0,00 h 0 W/m 2,1 km/h (1 Bft) 97,68 %
25.12.2018 06:00 3,1 C 2,8 C 2,2 C 93 % 1033,2 hPa 0,0 l/m 0,00 h 0,00 h 0 W/m 2,5 km/h (1 Bft) 97,68 %
25.12.2018 07:00 3,2 C 2,8 C 2,2 C 92 % 1033,4 hPa 0,0 l/m 0,00 h 0,00 h 0 W/m 4,0 km/h (1 Bft) 97,92 %
25.12.2018 08:00 3,1 C 2,8 C 2,2 C 92 % 1033,2 hPa 0,0 l/m 0,00 h 0,00 h 6 W/m 5,8 km/h (2 Bft) 95,51 %
25.12.2018 09:00 3,2 C 3,0 C 2,3 C 92 % 1033,4 hPa 0,0 l/m 0,00 h 0,00 h 22 W/m 7,4 km/h (2 Bft) 99,02 %
25.12.2018 10:00 3,5 C 3,6 C 3,0 C 91 % 1033,6 hPa 0,0 l/m 0,00 h 0,00 h 61 W/m 8,9 km/h (2 Bft) 97,93 %
25.12.2018 11:00 4,1 C 4,7 C 3,6 C 89 % 1033,4 hPa 0,0 l/m 0,10 h 0,00 h 116 W/m 11,0 km/h (2 Bft) 95,95 %
25.12.2018 12:00 4,6 C 5,6 C 4,1 C 87 % 1033,2 hPa 0,0 l/m 0,43 h 0,00 h 144 W/m 13,0 km/h (3 Bft) 97,83 %
25.12.2018 13:00 5,2 C 5,7 C 4,4 C 84 % 1033,1 hPa 0,0 l/m 0,20 h 0,00 h 120 W/m 11,2 km/h (2 Bft) 96,76 %
25.12.2018 14:00 5,4 C 6,2 C 4,4 C 83 % 1032,9 hPa 0,0 l/m 0,67 h 0,00 h 134 W/m 11,8 km/h (2 Bft) 98,44 %
25.12.2018 15:00 5,5 C 5,1 C 4,3 C 82 % 1033,0 hPa 0,0 l/m 0,30 h 0,00 h 49 W/m 11,5 km/h (2 Bft) 96,65 %
25.12.2018 16:00 4,8 C 4,1 C 3,5 C 83 % 1033,0 hPa 0,0 l/m 0,00 h 0,00 h 10 W/m 9,6 km/h (2 Bft) 97,51 %
25.12.2018 17:00 4,3 C 3,7 C 3,1 C 85 % 1033,1 hPa 0,0 l/m 0,00 h 0,00 h 0 W/m 9,9 km/h (2 Bft) 96,32 %
25.12.2018 18:00 3,9 C 3,3 C 2,8 C 87 % 1033,1 hPa 0,0 l/m 0,00 h 0,00 h 0 W/m 9,2 km/h (2 Bft) 98,12 %
25.12.2018 19:00 3,3 C 2,5 C 2,0 C 87 % 1033,1 hPa 0,0 l/m 0,00 h 0,00 h 0 W/m 8,5 km/h (2 Bft) 98,65 %
25.12.2018 20:00 2,4 C 1,2 C 0,8 C 88 % 1032,9 hPa 0,0 l/m 0,00 h 0,00 h 0 W/m 5,2 km/h (1 Bft) 95,81 %
25.12.2018 21:00 1,4 C 0,4 C -0,1 C 89 % 1032,9 hPa 0,0 l/m 0,00 h 0,00 h 0 W/m 3,7 km/h (1 Bft) 96,51 %
25.12.2018 22:00 0,9 C -0,0 C -0,4 C 91 % 1032,7 hPa 0,0 l/m 0,00 h 0,03 h 0 W/m 3,1 km/h (1 Bft) 97,77 %
25.12.2018 23:00 0,3 C -0,6 C -1,1 C 92 % 1032,3 hPa 0,0 l/m 0,00 h 0,00 h 0 W/m 3,0 km/h (1 Bft) 98,71 %
26.12.2018 00:00 -0,0 C -0,8 C -1,2 C 92 % 1032,2 hPa 0,0 l/m 0,00 h 0,00 h 0 W/m 0,4 km/h (0 Bft) 94,24 %
26.12.2018 01:00 -0,5 C -1,3 C -2,0 C 93 % 1032,0 hPa 0,0 l/m 0,00 h 0,00 h 0 W/m 1,3 km/h (1 Bft) 96,73 %
26.12.2018 02:00 -0,7 C -1,5 C -2,0 C 93 % 1031,8 hPa 0,0 l/m 0,00 h 0,00 h 0 W/m 3,1 km/h (1 Bft) 97,94 %
26.12.2018 03:00 -0,8 C -1,4 C -1,9 C 94 % 1031,4 hPa 0,0 l/m 0,00 h 0,00 h 0 W/m 5,7 km/h (1 Bft) 97,09 %
26.12.2018 04:00 -1,0 C -1,7 C -2,2 C 95 % 1031,1 hPa 0,0 l/m 0,00 h 0,00 h 0 W/m 2,6 km/h (1 Bft) 96,64 %
26.12.2018 05:00 -1,3 C -1,7 C -2,2 C 95 % 1030,8 hPa 0,0 l/m 0,00 h 0,00 h 0 W/m 1,3 km/h (1 Bft) 97,08 %
26.12.2018 06:00 -1,3 C -1,5 C -1,9 C 95 % 1030,8 hPa 0,0 l/m 0,00 h 0,00 h 0 W/m 2,1 km/h (1 Bft) 96,98 %
26.12.2018 07:00 -0,8 C -0,9 C -1,3 C 96 % 1030,9 hPa 0,0 l/m 0,00 h 0,00 h 0 W/m 2,2 km/h (1 Bft) 99,35 %
26.12.2018 08:00 -0,9 C -1,1 C -1,8 C 95 % 1031,1 hPa 0,0 l/m 0,00 h 0,00 h 8 W/m 2,8 km/h (1 Bft) 94,01 %
26.12.2018 09:00 -0,8 C -0,5 C -1,3 C 95 % 1031,4 hPa 0,0 l/m 0,10 h 0,00 h 38 W/m 3,1 km/h (1 Bft) 98,51 %
26.12.2018 10:00 0,4 C 3,3 C 0,0 C 95 % 1031,3 hPa 0,0 l/m 0,93 h 0,00 h 144 W/m 8,4 km/h (2 Bft) 98,44 %
26.12.2018 11:00 2,4 C 5,9 C 1,2 C 89 % 1031,2 hPa 0,0 l/m 1,00 h 0,00 h 214 W/m 12,3 km/h (3 Bft) 96,51 %
26.12.2018 12:00 4,2 C 8,3 C 2,5 C 82 % 1030,6 hPa 0,0 l/m 1,00 h 0,00 h 264 W/m 8,4 km/h (2 Bft) 96,83 %
26.12.2018 13:00 4,9 C 7,5 C 3,4 C 80 % 1030,2 hPa 0,0 l/m 1,00 h 0,00 h 226 W/m 10,4 km/h (2 Bft) 96,01 %
26.12.2018 14:00 4,8 C 5,6 C 3,4 C 80 % 1029,9 hPa 0,0 l/m 1,00 h 0,00 h 138 W/m 12,4 km/h (3 Bft) 99,57 %
26.12.2018 15:00 4,1 C 3,7 C 2,8 C 82 % 1029,7 hPa 0,0 l/m 0,17 h 0,00 h 55 W/m 10,5 km/h (2 Bft) 95,52 %
26.12.2018 16:00 3,4 C 2,6 C 1,9 C 84 % 1029,7 hPa 0,0 l/m 0,00 h 0,00 h 13 W/m 6,9 km/h (2 Bft) 98,15 %
26.12.2018 17:00 2,6 C 1,8 C 0,9 C 85 % 1029,3 hPa 0,0 l/m 0,00 h 0,00 h 0 W/m 1,8 km/h (1 Bft) 98,15 %
26.12.2018 18:00 1,9 C 1,1 C 0,2 C 87 % 1029,1 hPa 0,0 l/m 0,00 h 0,00 h 0 W/m 0,8 km/h (0 Bft) 97,31 %
26.12.2018 19:00 1,6 C 1,1 C 0,2 C 87 % 1029,1 hPa 0,0 l/m 0,00 h 0,00 h 0 W/m 1,8 km/h (1 Bft) 97,22 %
26.12.2018 20:00 1,3 C 0,3 C -0,5 C 87 % 1028,9 hPa 0,0 l/m 0,00 h 0,00 h 0 W/m 0,3 km/h (0 Bft) 96,60 %
26.12.2018 21:00 0,8 C 0,4 C -0,6 C 88 % 1028,4 hPa 0,0 l/m 0,00 h 0,00 h 0 W/m 3,0 km/h (1 Bft) 97,48 %
26.12.2018 22:00 1,2 C 1,1 C 0,0 C 90 % 1027,9 hPa 0,0 l/m 0,00 h 0,00 h 0 W/m 9,6 km/h (2 Bft) 97,91 %
26.12.2018 23:00 1,3 C 0,9 C 0,1 C 90 % 1027,8 hPa 0,0 l/m 0,00 h 0,00 h 0 W/m 4,8 km/h (1 Bft) 96,73 %
27.12.2018 00:00 1,2 C 0,6 C 0,0 C 90 % 1027,7 hPa 0,0 l/m 0,00 h 0,00 h 0 W/m 1,5 km/h (1 Bft) 96,79 %
27.12.2018 01:00 1,1 C 0,6 C 0,0 C 91 % 1027,5 hPa 0,0 l/m 0,00 h 0,00 h 0 W/m 1,7 km/h (1 Bft) 99,50 %
27.12.2018 02:00 0,9 C 0,6 C 0,0 C 92 % 1027,1 hPa 0,0 l/m 0,00 h 0,00 h 0 W/m 0,7 km/h (0 Bft) 97,17 %
27.12.2018 03:00 0,8 C 0,4 C -0,2 C 92 % 1026,6 hPa 0,0 l/m 0,00 h 0,00 h 0 W/m 4,0 km/h (1 Bft) 96,35 %
27.12.2018 04:00 0,4 C -0,6 C -1,3 C 92 % 1026,2 hPa 0,0 l/m 0,00 h 0,00 h 0 W/m 0,4 km/h (0 Bft) 99,55 %
27.12.2018 05:00 0,1 C -0,6 C -1,1 C 93 % 1025,7 hPa 0,0 l/m 0,00 h 0,00 h 0 W/m 1,5 km/h (1 Bft) 96,08 %
27.12.2018 06:00 -0,1 C -0,6 C -1,2 C 93 % 1025,6 hPa 0,0 l/m 0,00 h 0,00 h 0 W/m 4,3 km/h (1 Bft) 98,96 %
27.12.2018 07:00 -0,1 C -0,6 C -1,1 C 93 % 1025,7 hPa 0,0 l/m 0,00 h 0,00 h 0 W/m 7,0 km/h (2 Bft) 96,83 %
27.12.2018 08:00 -0,1 C -0,5 C -1,2 C 93 % 1025,8 hPa 0,0 l/m 0,00 h 0,00 h 9 W/m 3,1 km/h (1 Bft) 96,54 %
27.12.2018 09:00 0,1 C 0,2 C -0,7 C 92 % 1025,7 hPa 0,0 l/m 0,00 h 0,00 h 32 W/m 5,8 km/h (2 Bft) 99,50 %
27.12.2018 10:00 0,9 C 2,0 C 0,5 C 91 % 1025,4 hPa 0,0 l/m 0,57 h 0,00 h 111 W/m 10,9 km/h (2 Bft) 94,56 %
27.12.2018 11:00 2,2 C 3,8 C 1,7 C 88 % 1025,2 hPa 0,0 l/m 0,67 h 0,00 h 150 W/m 6,9 km/h (2 Bft) 97,93 %
27.12.2018 12:00 3,4 C 5,6 C 2,9 C 85 % 1024,4 hPa 0,0 l/m 0,97 h 0,00 h 184 W/m 8,5 km/h (2 Bft) 98,01 %
27.12.2018 13:00 4,1 C 5,1 C 3,4 C 82 % 1024,0 hPa 0,0 l/m 0,27 h 0,00 h 127 W/m 7,5 km/h (2 Bft) 98,22 %
27.12.2018 14:00 4,3 C 4,4 C 3,5 C 81 % 1024,0 hPa 0,0 l/m 0,00 h 0,00 h 73 W/m 2,9 km/h (1 Bft) 97,52 %
27.12.2018 15:00 4,4 C 4,0 C 3,2 C 82 % 1024,0 hPa 0,0 l/m 0,00 h 0,00 h 41 W/m 4,6 km/h (1 Bft) 96,23 %
27.12.2018 16:00 3,9 C 2,5 C 1,6 C 83 % 1024,0 hPa 0,0 l/m 0,00 h 0,00 h 11 W/m 0,0 km/h (0 Bft) 97,86 %
27.12.2018 17:00 2,6 C 1,0 C 0,2 C 85 % 1024,0 hPa 0,0 l/m 0,00 h 0,00 h 0 W/m 0,0 km/h (0 Bft) 98,29 %
27.12.2018 18:00 1,8 C 1,1 C 0,0 C 87 % 1023,8 hPa 0,0 l/m 0,00 h 0,00 h 0 W/m 0,0 km/h (0 Bft) 96,94 %
27.12.2018 19:00 1,7 C 1,7 C 0,2 C 90 % 1023,8 hPa 0,0 l/m 0,00 h 0,00 h 0 W/m 0,0 km/h (0 Bft) 96,50 %
27.12.2018 20:00 1,9 C 1,4 C 0,6 C 92 % 1024,1 hPa 0,0 l/m 0,00 h 0,00 h 0 W/m 0,3 km/h (0 Bft) 97,79 %
27.12.2018 21:00 1,9 C 1,8 C 0,9 C 92 % 1024,0 hPa 0,0 l/m 0,00 h 0,00 h 0 W/m 0,2 km/h (0 Bft) 84,19 %
27.12.2018 22:00 2,1 C 1,3 C 0,6 C 92 % 1024,1 hPa 0,0 l/m 0,00 h 0,00 h 0 W/m 0,0 km/h (0 Bft) 96,44 %
27.12.2018 23:00 1,9 C 1,1 C 0,5 C 92 % 1024,2 hPa 0,0 l/m 0,00 h 0,00 h 0 W/m 0,1 km/h (0 Bft) 94,51 %
28.12.2018 00:00 1,4 C 0,5 C -0,1 C 92 % 1024,3 hPa 0,0 l/m 0,00 h 0,00 h 0 W/m 0,2 km/h (0 Bft) 98,66 %
28.12.2018 01:00 1,2 C 0,5 C -0,2 C 92 % 1024,1 hPa 0,0 l/m 0,00 h 0,00 h 0 W/m 0,5 km/h (0 Bft) 98,78 %
28.12.2018 02:00 0,5 C -0,9 C -1,5 C 92 % 1024,5 hPa 0,0 l/m 0,00 h 0,00 h 0 W/m 0,0 km/h (0 Bft) 97,07 %
28.12.2018 03:00 -0,3 C -1,7 C -2,2 C 92 % 1024,7 hPa 0,0 l/m 0,00 h 0,00 h 0 W/m 0,0 km/h (0 Bft) 96,24 %
28.12.2018 04:00 -1,1 C -2,5 C -2,7 C 93 % 1024,9 hPa 0,0 l/m 0,00 h 0,00 h 0 W/m 0,0 km/h (0 Bft) 98,98 %
28.12.2018 05:00 -1,8 C -2,8 C -3,2 C 93 % 1025,0 hPa 0,0 l/m 0,00 h 0,00 h 0 W/m 0,0 km/h (0 Bft) 97,11 %
28.12.2018 06:00 -2,0 C -2,2 C -3,3 C 93 % 1025,3 hPa 0,0 l/m 0,00 h 0,00 h 0 W/m 0,0 km/h (0 Bft) 98,32 %
28.12.2018 07:00 -2,0 C -3,1 C -3,8 C 94 % 1025,9 hPa 0,0 l/m 0,00 h 0,00 h 0 W/m 0,0 km/h (0 Bft) 93,39 %
28.12.2018 08:00 -2,5 C -3,2 C -3,5 C 94 % 1026,6 hPa 0,0 l/m 0,00 h 0,00 h 7 W/m 0,0 km/h (0 Bft) 91,78 %
28.12.2018 09:00 -2,2 C -1,7 C -2,5 C 95 % 1026,9 hPa 0,0 l/m 0,00 h 0,00 h 27 W/m 0,5 km/h (0 Bft) 97,59 %
28.12.2018 10:00 -0,6 C 2,8 C -1,1 C 96 % 1027,2 hPa 0,2 l/m 0,90 h 0,00 h 130 W/m 2,5 km/h (1 Bft) 96,22 %
28.12.2018 11:00 1,4 C 6,7 C 0,2 C 95 % 1027,3 hPa 0,0 l/m 0,93 h 0,00 h 210 W/m 4,5 km/h (1 Bft) 82,79 %
28.12.2018 12:00 3,1 C 8,5 C 1,5 C 87 % 1027,3 hPa 0,0 l/m 0,90 h 0,00 h 245 W/m 5,0 km/h (1 Bft) 89,61 %
28.12.2018 13:00 3,9 C 6,0 C 2,4 C 83 % 1027,3 hPa 0,0 l/m 0,67 h 0,00 h 163 W/m 4,8 km/h (1 Bft) 99,57 %
28.12.2018 14:00 4,0 C 4,5 C 3,0 C 83 % 1027,1 hPa 0,0 l/m 0,20 h 0,00 h 85 W/m 3,2 km/h (1 Bft) 96,68 %
28.12.2018 15:00 4,0 C 3,3 C 2,8 C 83 % 1027,5 hPa 0,0 l/m 0,00 h 0,00 h 17 W/m 2,6 km/h (1 Bft) 96,63 %
28.12.2018 16:00 3,8 C 3,3 C 2,5 C 84 % 1028,1 hPa 0,0 l/m 0,00 h 0,00 h 4 W/m 1,4 km/h (1 Bft) 98,59 %
28.12.2018 17:00 3,6 C 2,8 C 2,2 C 86 % 1028,9 hPa 0,0 l/m 0,00 h 0,00 h 0 W/m 1,1 km/h (0 Bft) 96,01 %
28.12.2018 18:00 3,4 C 2,8 C 2,2 C 87 % 1029,3 hPa 0,0 l/m 0,00 h 0,00 h 0 W/m 1,9 km/h (1 Bft) 95,32 %
28.12.2018 19:00 3,4 C 3,0 C 2,2 C 87 % 1029,5 hPa 0,0 l/m 0,00 h 0,00 h 0 W/m 1,1 km/h (0 Bft) 98,72 %
28.12.2018 20:00 3,5 C 3,3 C 2,5 C 87 % 1029,5 hPa 0,0 l/m 0,00 h 0,00 h 0 W/m 0,5 km/h (0 Bft) 96,08 %
28.12.2018 21:00 3,6 C 3,0 C 2,2 C 88 % 1029,6 hPa 0,0 l/m 0,00 h 0,00 h 0 W/m 1,6 km/h (1 Bft) 96,44 %
28.12.2018 22:00 3,3 C 2,7 C 2,2 C 89 % 1030,2 hPa 0,0 l/m 0,00 h 0,00 h 0 W/m 3,5 km/h (1 Bft) 93,43 %
28.12.2018 23:00 3,0 C 2,0 C 1,7 C 91 % 1030,4 hPa 0,0 l/m 0,00 h 0,03 h 0 W/m 1,2 km/h (1 Bft) 96,08 %
29.12.2018 00:00 2,7 C 2,0 C 1,7 C 93 % 1030,2 hPa 0,0 l/m 0,00 h 0,00 h 0 W/m 1,5 km/h (1 Bft) 99,14 %
29.12.2018 01:00 2,7 C 2,2 C 1,7 C 94 % 1030,2 hPa 0,0 l/m 0,00 h 0,00 h 0 W/m 0,3 km/h (0 Bft) 92,18 %
29.12.2018 02:00 2,8 C 2,6 C 2,1 C 95 % 1030,1 hPa 0,0 l/m 0,00 h 0,00 h 0 W/m 1,5 km/h (1 Bft) 88,09 %
29.12.2018 03:00 3,1 C 2,8 C 2,2 C 95 % 1030,3 hPa 0,0 l/m 0,00 h 0,00 h 0 W/m 0,4 km/h (0 Bft) 97,14 %
29.12.2018 04:00 3,2 C 2,8 C 2,2 C 95 % 1030,2 hPa 0,0 l/m 0,00 h 0,00 h 0 W/m 3,7 km/h (1 Bft) 89,41 %
29.12.2018 05:00 3,3 C 2,8 C 2,2 C 95 % 1029,8 hPa 0,0 l/m 0,00 h 0,10 h 0 W/m 1,1 km/h (1 Bft) 94,41 %
29.12.2018 06:00 3,4 C 2,8 C 2,2 C 96 % 1029,7 hPa 0,0 l/m 0,00 h 0,20 h 0 W/m 2,4 km/h (1 Bft) 95,95 %
29.12.2018 07:00 3,6 C 2,9 C 2,3 C 97 % 1030,2 hPa 0,0 l/m 0,00 h 0,00 h 0 W/m 2,2 km/h (1 Bft) 91,52 %
29.12.2018 08:00 3,8 C 3,3 C 2,8 C 97 % 1030,3 hPa 0,0 l/m 0,00 h 0,00 h 4 W/m 2,5 km/h (1 Bft) 96,88 %
29.12.2018 09:00 4,0 C 3,7 C 3,1 C 97 % 1030,3 hPa 0,0 l/m 0,00 h 0,00 h 9 W/m 5,4 km/h (1 Bft) 97,50 %
29.12.2018 10:00 4,4 C 4,1 C 3,6 C 97 % 1029,9 hPa 0,0 l/m 0,00 h 0,03 h 23 W/m 10,8 km/h (2 Bft) 96,73 %
29.12.2018 11:00 5,0 C 5,0 C 4,3 C 97 % 1029,1 hPa 0,0 l/m 0,00 h 0,00 h 55 W/m 18,2 km/h (3 Bft) 99,01 %
29.12.2018 12:00 5,9 C 6,0 C 5,4 C 95 % 1028,4 hPa 0,0 l/m 0,00 h 0,00 h 75 W/m 17,8 km/h (3 Bft) 95,55 %
29.12.2018 13:00 6,6 C 6,7 C 6,0 C 93 % 1027,6 hPa 0,0 l/m 0,00 h 0,00 h 75 W/m 21,8 km/h (4 Bft) 97,57 %
29.12.2018 14:00 6,7 C 6,3 C 5,6 C 91 % 1027,0 hPa 0,0 l/m 0,00 h 0,00 h 32 W/m 20,2 km/h (4 Bft) 97,37 %
29.12.2018 15:00 6,5 C 6,0 C 5,5 C 92 % 1026,0 hPa 0,2 l/m 0,00 h 0,00 h 11 W/m 24,4 km/h (4 Bft) 97,24 %
29.12.2018 16:00 6,3 C 5,3 C 4,8 C 94 % 1025,7 hPa 0,4 l/m 0,00 h 0,47 h 6 W/m 18,7 km/h (3 Bft) 97,14 %
29.12.2018 17:00 6,2 C 5,0 C 4,4 C 96 % 1025,7 hPa 0,4 l/m 0,00 h 0,13 h 0 W/m 17,9 km/h (3 Bft) 97,28 %
29.12.2018 18:00 6,2 C 5,6 C 4,9 C 97 % 1025,0 hPa 0,0 l/m 0,00 h 0,00 h 0 W/m 23,5 km/h (4 Bft) 96,91 %
29.12.2018 19:00 6,7 C 6,1 C 5,4 C 97 % 1024,8 hPa 0,0 l/m 0,00 h 0,03 h 0 W/m 17,7 km/h (3 Bft) 96,69 %
29.12.2018 20:00 7,3 C 6,7 C 6,1 C 98 % 1025,1 hPa 0,0 l/m 0,00 h 0,00 h 0 W/m 19,0 km/h (3 Bft) 98,22 %
29.12.2018 21:00 8,0 C 7,2 C 7,0 C 98 % 1025,0 hPa 0,0 l/m 0,00 h 0,00 h 0 W/m 20,1 km/h (4 Bft) 97,72 %
29.12.2018 22:00 8,1 C 7,2 C 7,0 C 95 % 1025,4 hPa 0,0 l/m 0,00 h 0,00 h 0 W/m 23,9 km/h (4 Bft) 95,30 %
29.12.2018 23:00 8,0 C 7,5 C 6,7 C 89 % 1026,0 hPa 0,0 l/m 0,00 h 0,00 h 0 W/m 25,0 km/h (4 Bft) 99,22 %
30.12.2018 00:00 7,8 C 7,2 C 6,7 C 87 % 1026,6 hPa 0,0 l/m 0,00 h 0,00 h 0 W/m 20,1 km/h (4 Bft) 96,92 %
30.12.2018 01:00 7,7 C 7,2 C 6,7 C 88 % 1027,4 hPa 0,0 l/m 0,00 h 0,00 h 0 W/m 22,1 km/h (4 Bft) 95,80 %
30.12.2018 02:00 7,7 C 7,2 C 6,2 C 89 % 1028,2 hPa 0,0 l/m 0,00 h 0,03 h 0 W/m 20,0 km/h (4 Bft) 99,43 %
30.12.2018 03:00 7,5 C 7,0 C 6,1 C 89 % 1028,9 hPa 0,0 l/m 0,00 h 0,00 h 0 W/m 14,2 km/h (3 Bft) 96,49 %
30.12.2018 04:00 7,3 C 6,7 C 6,0 C 90 % 1029,1 hPa 0,0 l/m 0,00 h 0,00 h 0 W/m 11,4 km/h (2 Bft) 98,01 %
30.12.2018 05:00 7,1 C 6,6 C 5,6 C 91 % 1029,4 hPa 0,0 l/m 0,00 h 0,00 h 0 W/m 9,7 km/h (2 Bft) 98,90 %
30.12.2018 06:00 6,9 C 6,2 C 5,4 C 92 % 1029,8 hPa 0,0 l/m 0,00 h 0,00 h 0 W/m 9,2 km/h (2 Bft) 93,10 %
30.12.2018 07:00 6,3 C 5,6 C 5,0 C 92 % 1030,3 hPa 0,0 l/m 0,00 h 0,00 h 0 W/m 7,7 km/h (2 Bft) 95,79 %
30.12.2018 08:00 6,3 C 6,0 C 5,2 C 94 % 1030,9 hPa 0,0 l/m 0,00 h 0,00 h 5 W/m 9,8 km/h (2 Bft) 92,77 %
30.12.2018 09:00 6,4 C 6,3 C 5,2 C 94 % 1031,0 hPa 0,0 l/m 0,07 h 0,00 h 37 W/m 2,5 km/h (1 Bft) 93,83 %
30.12.2018 10:00 6,9 C 8,0 C 6,5 C 94 % 1031,3 hPa 0,0 l/m 0,43 h 0,00 h 101 W/m 7,0 km/h (2 Bft) 97,39 %
30.12.2018 11:00 7,6 C 7,8 C 6,9 C 92 % 1031,8 hPa 0,0 l/m 0,03 h 0,00 h 101 W/m 8,4 km/h (2 Bft) 96,90 %
30.12.2018 12:00 7,9 C 7,9 C 7,2 C 90 % 1031,3 hPa 0,0 l/m 0,10 h 0,00 h 85 W/m 9,6 km/h (2 Bft) 97,30 %
30.12.2018 13:00 7,9 C 7,8 C 7,2 C 90 % 1031,1 hPa 0,0 l/m 0,00 h 0,00 h 72 W/m 9,6 km/h (2 Bft) 85,80 %
30.12.2018 14:00 8,1 C 7,8 C 7,1 C 90 % 1030,9 hPa 0,0 l/m 0,00 h 0,00 h 52 W/m 9,1 km/h (2 Bft) 88,81 %
30.12.2018 15:00 7,9 C 7,1 C 6,6 C 90 % 1030,9 hPa 0,0 l/m 0,00 h 0,00 h 16 W/m 8,7 km/h (2 Bft) 83,88 %
30.12.2018 16:00 7,7 C 6,8 C 6,3 C 91 % 1030,7 hPa 0,0 l/m 0,00 h 0,00 h 11 W/m 10,1 km/h (2 Bft) 92,14 %
30.12.2018 17:00 7,2 C 6,1 C 5,6 C 94 % 1030,4 hPa 0,0 l/m 0,00 h 0,07 h 0 W/m 10,7 km/h (2 Bft) 97,85 %
30.12.2018 18:00 7,1 C 6,1 C 5,6 C 96 % 1030,2 hPa 0,6 l/m 0,00 h 0,73 h 0 W/m 8,2 km/h (2 Bft) 96,28 %
30.12.2018 19:00 7,2 C 6,4 C 5,9 C 97 % 1030,1 hPa 0,4 l/m 0,00 h 0,73 h 0 W/m 8,4 km/h (2 Bft) 98,49 %
30.12.2018 20:00 7,4 C 6,7 C 6,1 C 98 % 1029,9 hPa 0,4 l/m 0,00 h 0,20 h 0 W/m 10,9 km/h (2 Bft) 96,60 %
30.12.2018 21:00 7,6 C 6,9 C 6,4 C 98 % 1029,8 hPa 0,0 l/m 0,00 h 0,00 h 0 W/m 8,3 km/h (2 Bft) 96,57 %
30.12.2018 22:00 7,8 C 7,2 C 6,7 C 98 % 1029,8 hPa 0,0 l/m 0,00 h 0,27 h 0 W/m 6,6 km/h (2 Bft) 99,65 %
30.12.2018 23:00 8,0 C 7,2 C 6,7 C 99 % 1030,0 hPa 0,2 l/m 0,00 h 0,00 h 0 W/m 7,3 km/h (2 Bft) 95,24 %
Min-Datum _ 28.12.18 28.12.18 28.12.18 24.12.18 24.12.18 - - - - 24.12.18 24.12.18
_ Min-Zeit 08:52 07:42 07:12 14:04 00:00 - - - - 08:26 00:02
Minimum _ -2,7 C -3,9 C -3,9 C 75 % 1014,2 hPa - - - - 0,0 km/h (0 Bft) 10,00 %
Max-Datum _ 24.12.18 24.12.18 29.12.18 24.12.18 24.12.18 24.12.18 24.12.18 29.12.18 28.12.18 29.12.18 24.12.18
_ Max-Zeit 13:32 12:48 21:22 00:44 21:46 00:16 12:08 06:08 12:38 21:52 00:00
Maximum _ 8,2 C 16,1 C 7,2 C 99 % 1033,9 hPa 0,6 l/m 0,07 h 0,07 h 325 W/m 45,1 km/h
NW (6 Bft)
100,00 %
Durchschnitt _ 3,5 C 3,4 C 2,3 C 91 % 1028,7 hPa #3,8 l/m #16:44 h #4:48 h 82 W/m 6,7 km/h (2 Bft) 96,50 %
© 2018 W. Hausmann